createdAt,value
2023-04-17T00:00:17.032Z,102724.84
2023-04-17T00:02:45.074Z,102720.28
2023-04-17T00:05:11.954Z,102730.94
2023-04-17T00:07:38.811Z,102727.31
2023-04-17T00:10:07.818Z,102724.69
2023-04-17T00:12:34.807Z,102714.03
2023-04-17T00:15:01.459Z,102723.94
2023-04-17T00:17:27.965Z,102725.84
2023-04-17T00:19:54.528Z,102725.84
2023-04-17T00:22:21.143Z,102728.53
2023-04-17T00:24:47.638Z,102729.63
2023-04-17T00:27:14.057Z,102727.75
2023-04-17T00:29:40.605Z,102728.72
2023-04-17T00:32:07.536Z,102733.31
2023-04-17T00:34:33.973Z,102736.16
2023-04-17T00:37:00.424Z,102734.41
2023-04-17T00:39:27.190Z,102736.22
2023-04-17T00:41:53.765Z,102736.22
2023-04-17T00:44:20.890Z,102725.56
2023-04-17T00:46:47.681Z,102728.38
2023-04-17T00:49:14.160Z,102723.13
2023-04-17T00:51:40.778Z,102730.25
2023-04-17T00:54:07.807Z,102733.88
2023-04-17T00:56:34.329Z,102731.25
2023-04-17T00:59:03.866Z,102729.47
2023-04-17T01:01:30.439Z,102724.25
2023-04-17T01:03:59.794Z,102729.53
2023-04-17T01:06:27.038Z,102737.66
2023-04-17T01:08:53.957Z,102719.84
2023-04-17T01:11:20.429Z,102733.28
2023-04-17T01:13:51.365Z,102726.28
2023-04-17T01:16:19.042Z,102734.34
2023-04-17T01:18:48.178Z,102739.72
2023-04-17T01:21:15.176Z,102734.41
2023-04-17T01:23:52.762Z,102738.00
2023-04-17T01:26:22.863Z,102732.78
2023-04-17T01:28:54.194Z,102734.53
2023-04-17T01:31:21.215Z,102739.06
2023-04-17T01:33:48.686Z,102735.47
2023-04-17T01:36:15.809Z,102728.38
2023-04-17T01:38:42.460Z,102740.06
2023-04-17T01:41:10.119Z,102739.19
2023-04-17T01:43:41.972Z,102740.03
2023-04-17T01:46:09.161Z,102742.72
2023-04-17T01:48:36.577Z,102738.16
2023-04-17T01:51:03.745Z,102737.22
2023-04-17T01:53:31.236Z,102747.97
2023-04-17T01:55:58.509Z,102738.28
2023-04-17T01:58:24.940Z,102743.59
2023-04-17T02:00:51.974Z,102740.91
2023-04-17T02:03:19.069Z,102748.88
2023-04-17T02:05:47.245Z,102748.13
2023-04-17T02:08:14.604Z,102742.72
2023-04-17T02:10:42.152Z,102743.66
2023-04-17T02:13:09.189Z,102747.34
2023-04-17T02:15:36.813Z,102747.41
2023-04-17T02:18:06.092Z,102742.03
2023-04-17T02:20:35.956Z,102753.63
2023-04-17T02:23:03.896Z,102742.88
2023-04-17T02:25:31.395Z,102748.25
2023-04-17T02:27:57.956Z,102743.72
2023-04-17T02:30:25.583Z,102738.22
2023-04-17T02:32:55.146Z,102738.22
2023-04-17T02:35:24.839Z,102735.66
2023-04-17T02:37:51.759Z,102737.34
2023-04-17T02:40:19.253Z,102743.66
2023-04-17T02:42:48.838Z,102742.72
2023-04-17T02:45:15.468Z,102742.72
2023-04-17T02:47:42.885Z,102745.50
2023-04-17T02:50:10.731Z,102742.94
2023-04-17T02:52:46.143Z,102743.72
2023-04-17T02:55:12.610Z,102748.31
2023-04-17T02:57:40.838Z,102737.63
2023-04-17T03:00:14.725Z,102745.69
2023-04-17T03:02:41.509Z,102744.84
2023-04-17T03:05:09.161Z,102736.81
2023-04-17T03:07:35.798Z,102746.84
2023-04-17T03:10:02.736Z,102739.66
2023-04-17T03:12:30.422Z,102745.00
2023-04-17T03:14:56.843Z,102750.38
2023-04-17T03:17:23.384Z,102747.63
2023-04-17T03:19:49.942Z,102751.13
2023-04-17T03:22:16.458Z,102750.38
2023-04-17T03:24:43.024Z,102746.84
2023-04-17T03:27:09.987Z,102738.69
2023-04-17T03:29:40.713Z,102738.78
2023-04-17T03:32:09.599Z,102743.22
2023-04-17T03:34:36.105Z,102742.31
2023-04-17T03:37:03.675Z,102742.31
2023-04-17T03:39:31.110Z,102756.72
2023-04-17T03:41:57.591Z,102746.00
2023-04-17T03:44:24.080Z,102746.84
2023-04-17T03:46:50.496Z,102746.69
2023-04-17T03:49:17.260Z,102747.53
2023-04-17T03:51:43.963Z,102754.75
2023-04-17T03:54:16.478Z,102751.28
2023-04-17T03:56:45.265Z,102754.75
2023-04-17T03:59:12.586Z,102751.19
2023-04-17T04:01:43.775Z,102761.97
2023-04-17T04:04:18.181Z,102754.97
2023-04-17T04:06:44.948Z,102754.06
2023-04-17T04:09:14.673Z,102754.13
2023-04-17T04:11:42.188Z,102754.19
2023-04-17T04:14:08.891Z,102754.13
2023-04-17T04:16:35.522Z,102755.94
2023-04-17T04:19:11.761Z,102744.22
2023-04-17T04:21:38.755Z,102762.13
2023-04-17T04:24:08.580Z,102763.09
2023-04-17T04:26:36.879Z,102765.84
2023-04-17T04:29:03.705Z,102767.75
2023-04-17T04:31:39.887Z,102764.25
2023-04-17T04:34:08.914Z,102761.63
2023-04-17T04:36:41.778Z,102762.56
2023-04-17T04:39:21.573Z,102763.41
2023-04-17T04:41:50.750Z,102767.00
2023-04-17T04:44:19.874Z,102760.72
2023-04-17T04:46:47.747Z,102774.00
2023-04-17T04:49:15.220Z,102774.78
2023-04-17T04:51:41.856Z,102769.53
2023-04-17T04:54:08.914Z,102775.00
2023-04-17T04:56:44.957Z,102770.59
2023-04-17T04:59:13.438Z,102780.44
2023-04-17T05:01:45.363Z,102778.59
2023-04-17T05:04:14.131Z,102775.06
2023-04-17T05:06:41.517Z,102785.75
2023-04-17T05:09:08.451Z,102782.19
2023-04-17T05:11:35.045Z,102781.28
2023-04-17T05:14:01.663Z,102786.56
2023-04-17T05:16:31.222Z,102794.59
2023-04-17T05:18:58.456Z,102791.91
2023-04-17T05:21:50.958Z,102795.47
2023-04-17T05:24:19.893Z,102798.09
2023-04-17T05:26:48.636Z,102801.66
2023-04-17T05:29:15.364Z,102803.56
2023-04-17T05:31:41.944Z,102801.94
2023-04-17T05:34:20.041Z,102801.88
2023-04-17T05:36:46.583Z,102799.19
2023-04-17T05:39:13.993Z,102802.72
2023-04-17T05:41:40.580Z,102798.13
2023-04-17T05:44:07.253Z,102799.03
2023-04-17T05:46:33.671Z,102807.97
2023-04-17T05:49:00.277Z,102800.78
2023-04-17T05:51:26.989Z,102803.34
2023-04-17T05:53:53.682Z,102805.81
2023-04-17T05:56:20.991Z,102804.97
2023-04-17T05:58:48.484Z,102808.63
2023-04-17T06:01:17.326Z,102805.88
2023-04-17T06:03:44.010Z,102809.41
2023-04-17T06:06:16.451Z,102812.94
2023-04-17T06:08:42.860Z,102813.09
2023-04-17T06:11:09.723Z,102814.78
2023-04-17T06:13:36.861Z,102820.03
2023-04-17T06:16:04.180Z,102829.84
2023-04-17T06:18:30.821Z,102829.13
2023-04-17T06:20:57.429Z,102831.84
2023-04-17T06:23:24.292Z,102832.66
2023-04-17T06:25:50.865Z,102837.00
2023-04-17T06:28:18.450Z,102830.69
2023-04-17T06:30:45.429Z,102837.78
2023-04-17T06:33:11.868Z,102836.97
2023-04-17T06:35:39.199Z,102838.81
2023-04-17T06:38:23.632Z,102839.75
2023-04-17T06:40:52.484Z,102846.94
2023-04-17T06:43:19.288Z,102856.25
2023-04-17T06:45:45.724Z,102854.63
2023-04-17T06:48:12.541Z,102853.78
2023-04-17T06:50:38.989Z,102867.22
2023-04-17T06:53:06.402Z,102863.63
2023-04-17T06:55:32.806Z,102869.84
2023-04-17T06:57:59.215Z,102866.06
2023-04-17T07:00:26.031Z,102865.06
2023-04-17T07:02:52.503Z,102875.56
2023-04-17T07:05:19.982Z,102872.47
2023-04-17T07:07:46.460Z,102877.25
2023-04-17T07:10:15.682Z,102882.84
2023-04-17T07:12:42.229Z,102871.84
2023-04-17T07:15:09.696Z,102878.06
2023-04-17T07:17:37.928Z,102876.81
2023-04-17T07:20:07.700Z,102879.69
2023-04-17T07:22:37.044Z,102887.88
2023-04-17T07:25:04.565Z,102887.00
2023-04-17T07:27:31.075Z,102884.25
2023-04-17T07:29:57.687Z,102887.78
2023-04-17T07:32:24.641Z,102887.94
2023-04-17T07:34:51.145Z,102883.41
2023-04-17T07:37:17.814Z,102886.69
2023-04-17T07:39:45.239Z,102880.63
2023-04-17T07:42:11.697Z,102883.78
2023-04-17T07:44:39.023Z,102887.66
2023-04-17T07:47:05.553Z,102882.75
2023-04-17T07:49:32.339Z,102882.03
2023-04-17T07:51:58.829Z,102885.69
2023-04-17T07:54:25.553Z,102893.94
2023-04-17T07:56:52.034Z,102890.16
2023-04-17T07:59:18.500Z,102893.06
2023-04-17T08:01:45.050Z,102888.56
2023-04-17T08:04:11.736Z,102890.66
2023-04-17T08:06:39.036Z,102892.22
2023-04-17T08:09:05.502Z,102892.63
2023-04-17T08:11:35.689Z,102891.50
2023-04-17T08:14:06.504Z,102888.41
2023-04-17T08:16:33.445Z,102898.03
2023-04-17T08:18:59.938Z,102892.88
2023-04-17T08:21:26.692Z,102894.69
2023-04-17T08:23:53.097Z,102886.72
2023-04-17T08:26:20.523Z,102896.44
2023-04-17T08:28:47.074Z,102898.88
2023-04-17T08:31:13.944Z,102896.69
2023-04-17T08:33:40.644Z,102900.22
2023-04-17T08:36:09.659Z,102898.22
2023-04-17T08:38:36.514Z,102898.41
2023-04-17T08:41:06.074Z,102897.81
2023-04-17T08:43:35.320Z,102893.50
2023-04-17T08:46:03.003Z,102899.13
2023-04-17T08:48:30.519Z,102897.19
2023-04-17T08:50:57.036Z,102896.34
2023-04-17T08:53:23.498Z,102894.19
2023-04-17T08:55:50.075Z,102888.56
2023-04-17T08:58:17.784Z,102889.56
2023-04-17T09:00:45.229Z,102884.66
2023-04-17T09:03:13.823Z,102888.16
2023-04-17T09:05:48.466Z,102883.91
2023-04-17T09:08:17.114Z,102893.00
2023-04-17T09:10:45.894Z,102891.50
2023-04-17T09:13:15.685Z,102887.03
2023-04-17T09:15:44.042Z,102889.50
2023-04-17T09:18:33.012Z,102873.50
2023-04-17T09:21:00.879Z,102885.25
2023-04-17T09:23:28.894Z,102887.66
2023-04-17T09:26:13.596Z,102891.47
2023-04-17T09:28:40.780Z,102898.16
2023-04-17T09:31:27.588Z,102901.69
2023-04-17T09:33:58.246Z,102901.28
2023-04-17T09:36:31.585Z,102898.28
2023-04-17T09:39:02.303Z,102907.97
2023-04-17T09:41:31.614Z,102900.00
2023-04-17T09:44:05.235Z,102908.75
2023-04-17T09:46:31.659Z,102900.06
2023-04-17T09:49:18.672Z,102897.50
2023-04-17T09:51:46.368Z,102903.47
2023-04-17T09:54:14.953Z,102904.75
2023-04-17T09:56:41.521Z,102900.88
2023-04-17T09:59:08.802Z,102898.91
2023-04-17T10:01:37.802Z,102903.47
2023-04-17T10:04:05.517Z,102899.22
2023-04-17T10:06:33.007Z,102908.81
2023-04-17T10:08:59.989Z,102908.25
2023-04-17T10:11:34.155Z,102905.91
2023-04-17T10:14:13.597Z,102903.03
2023-04-17T10:16:44.968Z,102896.75
2023-04-17T10:19:34.127Z,102908.56
2023-04-17T10:22:15.918Z,102894.81
2023-04-17T10:24:43.048Z,102894.81
2023-04-17T10:27:25.005Z,102892.72
2023-04-17T10:29:58.418Z,102894.56
2023-04-17T10:32:27.715Z,102884.56
2023-04-17T10:35:00.834Z,102893.28
2023-04-17T10:37:47.355Z,102888.53
2023-04-17T10:40:30.664Z,102887.69
2023-04-17T10:43:22.572Z,102878.38
2023-04-17T10:45:58.560Z,102873.25
2023-04-17T10:48:47.724Z,102874.47
2023-04-17T10:51:20.410Z,102865.63
2023-04-17T10:54:00.187Z,102860.56
2023-04-17T10:56:27.630Z,102854.59
2023-04-17T10:59:02.074Z,102865.38
2023-04-17T11:01:38.009Z,102856.03
2023-04-17T11:04:05.194Z,102854.13
2023-04-17T11:06:33.097Z,102852.38
2023-04-17T11:09:00.490Z,102857.03
2023-04-17T11:11:42.979Z,102857.22
2023-04-17T11:14:14.388Z,102843.34
2023-04-17T11:16:43.243Z,102851.72
2023-04-17T11:19:10.594Z,102843.81
2023-04-17T11:21:44.776Z,102850.94
2023-04-17T11:24:12.051Z,102854.19
2023-04-17T11:26:46.154Z,102849.53
2023-04-17T11:29:20.409Z,102846.69
2023-04-17T11:31:48.327Z,102849.56
2023-04-17T11:34:16.193Z,102848.28
2023-04-17T11:36:57.135Z,102846.78
2023-04-17T11:39:25.538Z,102836.41
2023-04-17T11:41:52.674Z,102834.56
2023-04-17T11:44:20.563Z,102825.88
2023-04-17T11:46:54.887Z,102829.88
2023-04-17T11:49:31.724Z,102827.16
2023-04-17T11:52:01.983Z,102817.00
2023-04-17T11:54:29.402Z,102812.38
2023-04-17T11:57:01.307Z,102820.00
2023-04-17T11:59:38.787Z,102821.03
2023-04-17T12:02:07.364Z,102821.91
2023-04-17T12:04:35.367Z,102822.66
2023-04-17T12:07:07.240Z,102821.25
2023-04-17T12:09:35.499Z,102821.47
2023-04-17T12:12:05.573Z,102822.25
2023-04-17T12:14:32.612Z,102824.47
2023-04-17T12:16:59.375Z,102826.88
2023-04-17T12:19:27.211Z,102820.81
2023-04-17T12:21:54.403Z,102823.34
2023-04-17T12:24:24.036Z,102832.09
2023-04-17T12:26:52.354Z,102827.56
2023-04-17T12:29:26.517Z,102835.53
2023-04-17T12:31:59.288Z,102833.44
2023-04-17T12:34:27.235Z,102828.31
2023-04-17T12:36:54.299Z,102839.56
2023-04-17T12:39:20.770Z,102829.09
2023-04-17T12:41:47.276Z,102827.41
2023-04-17T12:44:14.333Z,102832.97
2023-04-17T12:46:41.120Z,102834.25
2023-04-17T12:49:07.656Z,102837.81
2023-04-17T12:51:37.591Z,102832.25
2023-04-17T12:54:04.346Z,102835.41
2023-04-17T12:56:30.835Z,102839.38
2023-04-17T12:58:57.277Z,102831.03
2023-04-17T13:01:25.156Z,102829.66
2023-04-17T13:03:51.833Z,102828.63
2023-04-17T13:06:18.544Z,102830.81
2023-04-17T13:08:45.012Z,102834.47
2023-04-17T13:11:11.473Z,102821.94
2023-04-17T13:13:37.875Z,102828.06
2023-04-17T13:16:04.814Z,102824.03
2023-04-17T13:18:31.310Z,102821.63
2023-04-17T13:20:57.809Z,102821.19
2023-04-17T13:23:24.200Z,102824.44
2023-04-17T13:25:50.652Z,102823.94
2023-04-17T13:28:17.148Z,102812.72
2023-04-17T13:30:43.659Z,102816.75
2023-04-17T13:33:10.261Z,102813.75
2023-04-17T13:35:36.661Z,102824.53
2023-04-17T13:38:04.537Z,102809.31
2023-04-17T13:40:31.193Z,102802.66
2023-04-17T13:42:58.354Z,102819.03
2023-04-17T13:45:24.869Z,102809.75
2023-04-17T13:47:51.457Z,102808.56
2023-04-17T13:50:17.940Z,102795.63
2023-04-17T13:52:44.447Z,102786.06
2023-04-17T13:55:14.640Z,102792.38
2023-04-17T13:57:41.577Z,102779.41
2023-04-17T14:00:08.701Z,102788.59
2023-04-17T14:02:35.374Z,102789.88
2023-04-17T14:05:02.219Z,102781.91
2023-04-17T14:07:29.976Z,102780.63
2023-04-17T14:09:56.455Z,102781.28
2023-04-17T14:12:23.602Z,102780.41
2023-04-17T14:14:50.212Z,102775.72
2023-04-17T14:17:16.726Z,102779.03
2023-04-17T14:19:43.185Z,102770.22
2023-04-17T14:22:09.653Z,102770.84
2023-04-17T14:24:36.068Z,102770.19
2023-04-17T14:27:02.518Z,102775.91
2023-04-17T14:29:28.990Z,102773.97
2023-04-17T14:31:55.526Z,102768.13
2023-04-17T14:34:22.136Z,102767.72
2023-04-17T14:36:48.757Z,102768.09
2023-04-17T14:39:15.613Z,102756.19
2023-04-17T14:41:42.296Z,102768.59
2023-04-17T14:44:08.904Z,102752.75
2023-04-17T14:46:35.649Z,102760.56
2023-04-17T14:49:02.340Z,102752.84
2023-04-17T14:51:30.587Z,102755.81
2023-04-17T14:53:57.473Z,102745.16
2023-04-17T14:56:24.170Z,102754.16
2023-04-17T14:58:50.702Z,102755.19
2023-04-17T15:01:17.261Z,102750.94
2023-04-17T15:03:46.768Z,102745.19
2023-04-17T15:06:14.984Z,102759.53
2023-04-17T15:08:41.713Z,102758.50
2023-04-17T15:11:08.884Z,102751.16
2023-04-17T15:13:35.927Z,102748.22
2023-04-17T15:16:02.590Z,102750.09
2023-04-17T15:18:29.154Z,102745.38
2023-04-17T15:20:55.909Z,102749.88
2023-04-17T15:23:22.849Z,102744.78
2023-04-17T15:25:49.470Z,102750.16
2023-04-17T15:28:15.967Z,102752.53
2023-04-17T15:30:42.670Z,102760.91
2023-04-17T15:33:10.240Z,102752.66
2023-04-17T15:35:37.317Z,102752.53
2023-04-17T15:38:05.120Z,102754.31
2023-04-17T15:40:31.619Z,102748.69
2023-04-17T15:42:58.100Z,102754.88
2023-04-17T15:45:27.137Z,102744.66
2023-04-17T15:47:54.560Z,102741.34
2023-04-17T15:50:21.796Z,102740.44
2023-04-17T15:52:49.295Z,102743.31
2023-04-17T15:55:15.843Z,102743.19
2023-04-17T15:57:47.084Z,102740.63
2023-04-17T16:00:14.192Z,102747.59
2023-04-17T16:02:40.751Z,102744.47
2023-04-17T16:05:07.808Z,102740.00
2023-04-17T16:07:34.308Z,102734.44
2023-04-17T16:10:00.708Z,102733.78
2023-04-17T16:12:28.183Z,102722.88
2023-04-17T16:14:54.778Z,102727.38
2023-04-17T16:17:21.306Z,102740.88
2023-04-17T16:19:50.380Z,102734.13
2023-04-17T16:22:18.417Z,102730.81
2023-04-17T16:24:44.863Z,102727.00
2023-04-17T16:27:11.429Z,102732.19
2023-04-17T16:29:37.919Z,102731.25
2023-04-17T16:32:04.476Z,102731.97
2023-04-17T16:34:31.017Z,102724.72
2023-04-17T16:36:57.426Z,102732.44
2023-04-17T16:39:24.028Z,102724.38
2023-04-17T16:41:52.194Z,102727.53
2023-04-17T16:44:18.675Z,102726.44
2023-04-17T16:47:03.140Z,102723.34
2023-04-17T16:49:31.639Z,102730.75
2023-04-17T16:51:58.996Z,102727.44
2023-04-17T16:54:26.111Z,102733.72
2023-04-17T16:56:52.597Z,102734.00
2023-04-17T16:59:19.153Z,102738.97
2023-04-17T17:01:47.112Z,102729.09
2023-04-17T17:04:13.773Z,102728.44
2023-04-17T17:06:40.352Z,102735.47
2023-04-17T17:09:06.777Z,102735.09
2023-04-17T17:11:33.362Z,102736.44
2023-04-17T17:13:59.817Z,102734.97
2023-04-17T17:16:26.340Z,102738.88
2023-04-17T17:18:52.836Z,102738.47
2023-04-17T17:21:19.301Z,102736.13
2023-04-17T17:23:45.849Z,102733.50
2023-04-17T17:26:12.520Z,102736.69
2023-04-17T17:28:39.186Z,102739.03
2023-04-17T17:31:09.566Z,102738.59
2023-04-17T17:33:36.511Z,102734.53
2023-04-17T17:36:03.213Z,102737.41
2023-04-17T17:38:30.760Z,102731.00
2023-04-17T17:40:57.476Z,102737.13
2023-04-17T17:43:24.250Z,102739.75
2023-04-17T17:45:50.988Z,102737.28
2023-04-17T17:48:18.217Z,102738.63
2023-04-17T17:50:44.822Z,102730.22
2023-04-17T17:53:12.492Z,102730.00
2023-04-17T17:55:39.889Z,102736.56
2023-04-17T17:58:08.204Z,102736.06
2023-04-17T18:00:35.420Z,102735.38
2023-04-17T18:03:02.136Z,102740.19
2023-04-17T18:05:28.767Z,102738.63
2023-04-17T18:07:55.430Z,102734.44
2023-04-17T18:10:21.902Z,102730.50
2023-04-17T18:12:49.147Z,102738.31
2023-04-17T18:15:15.789Z,102745.41
2023-04-17T18:17:42.698Z,102743.38
2023-04-17T18:20:09.723Z,102743.16
2023-04-17T18:22:37.958Z,102743.69
2023-04-17T18:25:06.214Z,102753.25
2023-04-17T18:27:32.878Z,102756.34
2023-04-17T18:29:59.315Z,102759.59
2023-04-17T18:32:25.895Z,102763.84
2023-04-17T18:34:52.391Z,102758.00
2023-04-17T18:37:18.868Z,102757.69
2023-04-17T18:39:45.413Z,102758.16
2023-04-17T18:42:11.980Z,102759.53
2023-04-17T18:44:38.476Z,102765.28
2023-04-17T18:47:05.255Z,102768.31
2023-04-17T18:49:31.738Z,102764.41
2023-04-17T18:51:58.324Z,102772.97
2023-04-17T18:54:24.837Z,102771.34
2023-04-17T18:56:51.393Z,102769.03
2023-04-17T18:59:19.896Z,102779.44
2023-04-17T19:01:46.539Z,102775.28
2023-04-17T19:04:13.401Z,102780.91
2023-04-17T19:06:40.184Z,102785.66
2023-04-17T19:09:06.729Z,102779.66
2023-04-17T19:11:33.524Z,102794.34
2023-04-17T19:14:00.107Z,102792.81
2023-04-17T19:16:26.802Z,102788.44
2023-04-17T19:18:53.369Z,102788.72
2023-04-17T19:21:19.770Z,102795.31
2023-04-17T19:23:47.752Z,102806.31
2023-04-17T19:26:15.687Z,102801.88
2023-04-17T19:28:42.273Z,102801.34
2023-04-17T19:31:09.267Z,102803.16
2023-04-17T19:33:35.933Z,102802.56
2023-04-17T19:36:05.016Z,102804.59
2023-04-17T19:38:34.191Z,102810.94
2023-04-17T19:41:14.672Z,102813.72
2023-04-17T19:43:42.450Z,102807.63
2023-04-17T19:46:09.322Z,102815.97
2023-04-17T19:48:36.758Z,102812.44
2023-04-17T19:51:07.690Z,102806.38
2023-04-17T19:53:36.239Z,102810.25
2023-04-17T19:56:05.287Z,102815.84
2023-04-17T19:58:33.122Z,102813.34
2023-04-17T20:01:00.958Z,102812.53
2023-04-17T20:03:28.678Z,102810.84
2023-04-17T20:05:57.210Z,102809.28
2023-04-17T20:08:24.386Z,102815.75
2023-04-17T20:10:51.006Z,102813.34
2023-04-17T20:13:17.532Z,102815.34
2023-04-17T20:15:44.162Z,102816.38
2023-04-17T20:18:11.256Z,102823.72
2023-04-17T20:20:38.799Z,102821.88
2023-04-17T20:23:05.562Z,102819.31
2023-04-17T20:25:32.086Z,102822.03
2023-04-17T20:27:58.588Z,102824.03
2023-04-17T20:30:25.416Z,102817.88
2023-04-17T20:32:52.443Z,102821.47
2023-04-17T20:35:20.863Z,102816.34
2023-04-17T20:37:47.396Z,102808.69
2023-04-17T20:40:14.281Z,102812.41
2023-04-17T20:42:42.053Z,102810.53
2023-04-17T20:45:09.966Z,102812.47
2023-04-17T20:47:37.708Z,102807.28
2023-04-17T20:50:05.297Z,102821.03
2023-04-17T20:52:32.952Z,102812.25
2023-04-17T20:55:00.894Z,102823.28
2023-04-17T20:57:28.548Z,102815.44
2023-04-17T20:59:55.374Z,102818.28
2023-04-17T21:02:22.035Z,102813.16
2023-04-17T21:04:49.503Z,102809.66
2023-04-17T21:07:16.498Z,102817.09
2023-04-17T21:09:43.000Z,102811.97
2023-04-17T21:12:09.465Z,102813.84
2023-04-17T21:14:36.568Z,102813.09
2023-04-17T21:17:03.101Z,102816.09
2023-04-17T21:19:32.198Z,102810.84
2023-04-17T21:21:58.648Z,102821.69
2023-04-17T21:24:25.361Z,102810.09
2023-04-17T21:26:54.013Z,102816.50
2023-04-17T21:29:20.552Z,102812.16
2023-04-17T21:31:47.000Z,102819.53
2023-04-17T21:34:13.855Z,102813.28
2023-04-17T21:36:40.621Z,102805.13
2023-04-17T21:39:07.256Z,102811.56
2023-04-17T21:41:33.817Z,102815.34
2023-04-17T21:44:02.392Z,102819.13
2023-04-17T21:46:29.232Z,102828.13
2023-04-17T21:48:55.948Z,102813.97
2023-04-17T21:51:23.148Z,102820.41
2023-04-17T21:53:49.603Z,102825.91
2023-04-17T21:56:16.037Z,102823.34
2023-04-17T21:58:42.545Z,102818.16
2023-04-17T22:01:10.136Z,102821.06
2023-04-17T22:03:36.637Z,102817.56
2023-04-17T22:06:03.669Z,102823.06
2023-04-17T22:08:30.279Z,102826.78
2023-04-17T22:10:56.739Z,102827.72
2023-04-17T22:13:23.154Z,102829.53
2023-04-17T22:15:49.632Z,102829.53
2023-04-17T22:18:17.524Z,102827.84
2023-04-17T22:21:02.450Z,102825.94
2023-04-17T22:23:30.578Z,102823.38
2023-04-17T22:27:12.377Z,102823.66
2023-04-17T22:30:35.434Z,102831.78
2023-04-17T22:33:39.462Z,102819.38
2023-04-17T22:36:43.260Z,102820.38
2023-04-17T22:40:05.885Z,102831.16
2023-04-17T22:43:28.483Z,102835.75
2023-04-17T22:46:13.959Z,102821.59
2023-04-17T22:49:19.635Z,102823.31
2023-04-17T22:51:47.162Z,102829.66
2023-04-17T22:55:10.264Z,102826.16
2023-04-17T22:57:55.370Z,102837.94
2023-04-17T23:00:40.687Z,102834.53
2023-04-17T23:03:25.528Z,102828.41
2023-04-17T23:05:55.130Z,102827.63
2023-04-17T23:08:22.613Z,102825.88
2023-04-17T23:10:58.698Z,102823.28
2023-04-17T23:13:26.668Z,102830.47
2023-04-17T23:15:53.894Z,102827.84
2023-04-17T23:18:20.364Z,102829.75
2023-04-17T23:20:46.879Z,102836.25
2023-04-17T23:23:13.375Z,102834.63
2023-04-17T23:25:39.791Z,102835.69
2023-04-17T23:28:06.270Z,102837.69
2023-04-17T23:30:32.675Z,102836.84
2023-04-17T23:32:59.125Z,102841.50
2023-04-17T23:35:25.774Z,102838.06
2023-04-17T23:37:52.259Z,102839.97
2023-04-17T23:40:18.659Z,102839.19
2023-04-17T23:42:45.802Z,102837.38
2023-04-17T23:45:12.230Z,102850.97
2023-04-17T23:47:38.676Z,102847.44
2023-04-17T23:50:05.481Z,102858.34
2023-04-17T23:52:32.528Z,102844.06
2023-04-17T23:54:58.940Z,102840.50
2023-04-17T23:57:25.415Z,102843.09
2023-04-17T23:59:51.879Z,102840.41
